createdAt,value
2023-09-06T00:01:20.873Z,3.60
2023-09-06T00:03:49.081Z,3.90
2023-09-06T00:06:17.863Z,4.15
2023-09-06T00:08:46.994Z,3.70
2023-09-06T00:11:14.956Z,3.67
2023-09-06T00:13:42.950Z,3.60
2023-09-06T00:16:10.856Z,3.40
2023-09-06T00:18:39.130Z,3.72
2023-09-06T00:21:07.478Z,3.83
2023-09-06T00:23:35.721Z,3.90
2023-09-06T00:26:04.320Z,3.67
2023-09-06T00:28:32.550Z,3.53
2023-09-06T00:31:00.809Z,3.50
2023-09-06T00:33:32.062Z,4.00
2023-09-06T00:36:00.232Z,3.67
2023-09-06T00:38:30.530Z,3.60
2023-09-06T00:40:58.891Z,3.60
2023-09-06T00:43:27.000Z,3.97
2023-09-06T00:45:55.321Z,3.67
2023-09-06T00:48:28.093Z,3.60
2023-09-06T00:50:58.915Z,3.70
2023-09-06T00:53:28.112Z,3.70
2023-09-06T00:56:00.213Z,3.67
2023-09-06T00:58:29.567Z,4.00
2023-09-06T01:00:59.241Z,3.15
2023-09-06T01:03:27.589Z,3.67
2023-09-06T01:06:05.799Z,3.83
2023-09-06T01:08:47.672Z,3.80
2023-09-06T01:11:24.085Z,3.53
2023-09-06T01:13:54.869Z,3.45
2023-09-06T01:16:55.904Z,3.45
2023-09-06T01:19:27.467Z,3.70
2023-09-06T01:22:19.477Z,3.67
2023-09-06T01:24:49.363Z,3.50
2023-09-06T01:27:18.074Z,3.85
2023-09-06T01:29:46.007Z,3.80
2023-09-06T01:32:15.265Z,3.60
2023-09-06T01:34:43.153Z,3.80
2023-09-06T01:37:11.064Z,4.18
2023-09-06T01:39:39.092Z,3.65
2023-09-06T01:42:07.076Z,3.80
2023-09-06T01:44:35.034Z,3.75
2023-09-06T01:47:06.568Z,3.75
2023-09-06T01:49:34.917Z,3.80
2023-09-06T01:52:06.851Z,3.40
2023-09-06T01:54:34.911Z,3.90
2023-09-06T01:57:03.568Z,3.72
2023-09-06T01:59:32.572Z,3.45
2023-09-06T02:02:00.553Z,3.60
2023-09-06T02:04:28.725Z,3.65
2023-09-06T02:06:56.664Z,4.05
2023-09-06T02:09:24.625Z,3.78
2023-09-06T02:11:53.510Z,3.60
2023-09-06T02:14:21.580Z,3.58
2023-09-06T02:16:51.836Z,3.67
2023-09-06T02:19:21.275Z,3.92
2023-09-06T02:21:49.334Z,3.45
2023-09-06T02:24:18.057Z,3.58
2023-09-06T02:26:46.103Z,3.42
2023-09-06T02:29:13.981Z,3.80
2023-09-06T02:31:42.103Z,3.50
2023-09-06T02:34:10.222Z,3.80
2023-09-06T02:36:38.570Z,3.40
2023-09-06T02:39:07.841Z,3.65
2023-09-06T02:41:35.723Z,3.47
2023-09-06T02:44:05.487Z,3.38
2023-09-06T02:46:35.520Z,3.60
2023-09-06T02:49:12.639Z,3.35
2023-09-06T02:51:48.707Z,3.50
2023-09-06T02:54:18.931Z,3.42
2023-09-06T02:56:47.199Z,3.42
2023-09-06T02:59:16.985Z,3.53
2023-09-06T03:01:46.580Z,3.88
2023-09-06T03:04:16.229Z,3.33
2023-09-06T03:06:44.885Z,3.75
2023-09-06T03:09:14.883Z,3.60
2023-09-06T03:11:43.100Z,3.55
2023-09-06T03:14:11.966Z,3.25
2023-09-06T03:16:40.798Z,3.22
2023-09-06T03:19:12.692Z,3.40
2023-09-06T03:21:41.692Z,3.75
2023-09-06T03:24:14.000Z,3.63
2023-09-06T03:26:45.764Z,3.25
2023-09-06T03:29:16.965Z,3.65
2023-09-06T03:31:47.325Z,3.88
2023-09-06T03:34:17.164Z,3.40
2023-09-06T03:36:53.034Z,3.47
2023-09-06T03:39:23.217Z,3.17
2023-09-06T03:41:52.032Z,3.50
2023-09-06T03:44:21.096Z,3.63
2023-09-06T03:46:50.514Z,3.55
2023-09-06T03:49:20.307Z,3.13
2023-09-06T03:51:50.126Z,3.67
2023-09-06T03:54:19.499Z,3.30
2023-09-06T03:56:47.754Z,3.28
2023-09-06T03:59:16.671Z,3.30
2023-09-06T04:01:45.671Z,3.53
2023-09-06T04:04:15.280Z,3.35
2023-09-06T04:06:44.621Z,3.30
2023-09-06T04:09:15.273Z,3.40
2023-09-06T04:11:43.877Z,3.45
2023-09-06T04:14:12.796Z,3.40
2023-09-06T04:16:41.038Z,3.65
2023-09-06T04:19:10.066Z,3.63
2023-09-06T04:21:39.423Z,3.42
2023-09-06T04:24:09.152Z,3.40
2023-09-06T04:26:40.002Z,3.30
2023-09-06T04:29:09.030Z,3.00
2023-09-06T04:31:37.219Z,3.20
2023-09-06T04:34:05.679Z,3.30
2023-09-06T04:36:38.309Z,3.63
2023-09-06T04:39:09.799Z,3.15
2023-09-06T04:41:40.207Z,3.17
2023-09-06T04:44:11.875Z,3.30
2023-09-06T04:46:40.951Z,3.30
2023-09-06T04:49:10.317Z,3.30
2023-09-06T04:51:39.423Z,3.30
2023-09-06T04:54:11.066Z,3.28
2023-09-06T04:56:41.879Z,3.33
2023-09-06T04:59:10.151Z,3.10
2023-09-06T05:01:38.274Z,3.45
2023-09-06T05:04:06.932Z,3.17
2023-09-06T05:06:38.120Z,3.10
2023-09-06T05:09:06.684Z,3.42
2023-09-06T05:11:35.000Z,3.40
2023-09-06T05:14:03.244Z,3.20
2023-09-06T05:16:31.465Z,3.40
2023-09-06T05:18:59.713Z,3.38
2023-09-06T05:21:36.479Z,3.63
2023-09-06T05:24:04.708Z,3.20
2023-09-06T05:26:35.060Z,3.30
2023-09-06T05:29:05.637Z,3.10
2023-09-06T05:31:34.308Z,3.13
2023-09-06T05:34:03.841Z,2.90
2023-09-06T05:36:31.890Z,3.42
2023-09-06T05:38:59.779Z,3.05
2023-09-06T05:41:28.945Z,3.20
2023-09-06T05:43:57.169Z,4.05
2023-09-06T05:46:32.887Z,3.22
2023-09-06T05:49:09.790Z,3.85
2023-09-06T05:51:42.277Z,4.10
2023-09-06T05:54:11.060Z,3.55
2023-09-06T05:56:40.953Z,3.40
2023-09-06T05:59:14.624Z,3.45
2023-09-06T06:01:44.044Z,3.67
2023-09-06T06:04:12.838Z,3.40
2023-09-06T06:06:42.244Z,3.55
2023-09-06T06:09:15.065Z,3.58
2023-09-06T06:11:43.344Z,3.15
2023-09-06T06:14:11.657Z,2.95
2023-09-06T06:16:40.545Z,3.47
2023-09-06T06:19:11.187Z,3.22
2023-09-06T06:21:40.214Z,2.97
2023-09-06T06:24:11.840Z,3.40
2023-09-06T06:26:40.475Z,3.20
2023-09-06T06:29:09.068Z,3.15
2023-09-06T06:31:37.354Z,3.80
2023-09-06T06:34:05.837Z,3.13
2023-09-06T06:36:34.347Z,3.58
2023-09-06T06:39:02.608Z,3.17
2023-09-06T06:41:30.731Z,3.28
2023-09-06T06:43:58.911Z,3.72
2023-09-06T06:46:34.216Z,3.20
2023-09-06T06:49:06.055Z,2.70
2023-09-06T06:51:42.072Z,3.40
2023-09-06T06:54:16.116Z,3.70
2023-09-06T06:56:44.712Z,3.13
2023-09-06T06:59:13.885Z,3.30
2023-09-06T07:01:42.180Z,2.95
2023-09-06T07:04:10.531Z,3.55
2023-09-06T07:06:38.858Z,3.08
2023-09-06T07:09:07.104Z,3.30
2023-09-06T07:11:35.316Z,3.20
2023-09-06T07:14:03.921Z,3.05
2023-09-06T07:16:35.466Z,3.20
2023-09-06T07:19:03.964Z,2.92
2023-09-06T07:21:32.754Z,3.00
2023-09-06T07:24:00.666Z,3.30
2023-09-06T07:26:28.637Z,3.10
2023-09-06T07:28:56.643Z,3.10
2023-09-06T07:31:24.668Z,3.17
2023-09-06T07:33:52.636Z,3.20
2023-09-06T07:36:20.969Z,3.15
2023-09-06T07:38:49.893Z,2.90
2023-09-06T07:41:18.803Z,3.20
2023-09-06T07:43:46.755Z,3.00
2023-09-06T07:46:14.673Z,2.95
2023-09-06T07:48:42.708Z,3.10
2023-09-06T07:51:10.687Z,2.78
2023-09-06T07:53:38.708Z,3.20
2023-09-06T07:56:07.923Z,2.85
2023-09-06T07:58:36.473Z,2.88
2023-09-06T08:01:18.053Z,2.80
2023-09-06T08:03:49.021Z,3.10
2023-09-06T08:06:17.739Z,3.00
2023-09-06T08:08:46.304Z,3.25
2023-09-06T08:11:18.029Z,3.00
2023-09-06T08:13:46.058Z,3.58
2023-09-06T08:16:14.207Z,3.60
2023-09-06T08:18:42.361Z,3.08
2023-09-06T08:21:10.711Z,3.05
2023-09-06T08:23:38.896Z,3.78
2023-09-06T08:26:07.089Z,3.30
2023-09-06T08:28:36.819Z,3.40
2023-09-06T08:31:05.645Z,3.45
2023-09-06T08:33:34.279Z,3.03
2023-09-06T08:36:02.646Z,4.20
2023-09-06T08:38:31.223Z,3.90
2023-09-06T08:40:59.771Z,4.55
2023-09-06T08:43:32.876Z,4.03
2023-09-06T08:46:04.347Z,4.63
2023-09-06T08:48:33.540Z,3.63
2023-09-06T08:51:02.525Z,3.92
2023-09-06T08:53:32.876Z,3.85
2023-09-06T08:56:02.039Z,3.90
2023-09-06T08:58:31.313Z,4.18
2023-09-06T09:00:59.841Z,3.72
2023-09-06T09:03:28.417Z,3.45
2023-09-06T09:06:01.542Z,3.40
2023-09-06T09:08:32.753Z,3.47
2023-09-06T09:11:15.159Z,3.38
2023-09-06T09:13:44.071Z,3.10
2023-09-06T09:16:14.348Z,3.38
2023-09-06T09:18:44.528Z,3.00
2023-09-06T09:21:14.052Z,2.80
2023-09-06T09:23:51.022Z,3.20
2023-09-06T09:26:21.469Z,3.33
2023-09-06T09:28:52.667Z,3.92
2023-09-06T09:31:20.734Z,4.65
2023-09-06T09:33:52.586Z,2.90
2023-09-06T09:36:20.576Z,3.05
2023-09-06T09:38:52.615Z,2.88
2023-09-06T09:41:21.316Z,2.97
2023-09-06T09:43:49.301Z,2.80
2023-09-06T09:46:29.270Z,2.88
2023-09-06T09:49:02.739Z,3.17
2023-09-06T09:51:33.177Z,3.00
2023-09-06T09:54:03.521Z,2.90
2023-09-06T09:56:33.758Z,2.88
2023-09-06T09:59:05.959Z,2.90
2023-09-06T10:01:34.242Z,2.88
2023-09-06T10:04:09.139Z,2.97
2023-09-06T10:06:39.285Z,3.40
2023-09-06T10:09:14.274Z,2.80
2023-09-06T10:11:43.788Z,3.13
2023-09-06T10:14:13.988Z,2.80
2023-09-06T10:16:42.096Z,2.75
2023-09-06T10:19:10.149Z,2.90
2023-09-06T10:21:38.495Z,2.70
2023-09-06T10:24:18.035Z,4.80
2023-09-06T10:26:48.754Z,3.65
2023-09-06T10:29:23.910Z,3.08
2023-09-06T10:31:55.268Z,3.20
2023-09-06T10:34:24.756Z,3.60
2023-09-06T10:36:58.855Z,3.05
2023-09-06T10:39:31.057Z,3.25
2023-09-06T10:42:12.793Z,2.90
2023-09-06T10:44:56.638Z,3.08
2023-09-06T10:47:34.359Z,3.17
2023-09-06T10:50:31.390Z,2.90
2023-09-06T10:53:00.325Z,2.60
2023-09-06T10:55:44.985Z,2.83
2023-09-06T10:58:14.381Z,3.28
2023-09-06T11:00:43.774Z,3.25
2023-09-06T11:03:15.356Z,2.90
2023-09-06T11:05:51.635Z,3.00
2023-09-06T11:08:25.928Z,3.35
2023-09-06T11:10:59.438Z,3.08
2023-09-06T11:13:30.657Z,3.17
2023-09-06T11:15:58.820Z,3.10
2023-09-06T11:18:30.860Z,2.95
2023-09-06T11:21:00.763Z,3.08
2023-09-06T11:23:29.589Z,3.88
2023-09-06T11:25:59.568Z,3.30
2023-09-06T11:28:32.755Z,2.97
2023-09-06T11:31:04.932Z,4.00
2023-09-06T11:33:33.381Z,3.38
2023-09-06T11:36:05.562Z,3.40
2023-09-06T11:38:36.826Z,3.53
2023-09-06T11:41:10.361Z,3.13
2023-09-06T11:43:43.547Z,3.22
2023-09-06T11:46:14.278Z,3.22
2023-09-06T11:48:43.621Z,2.88
2023-09-06T11:51:14.520Z,2.92
2023-09-06T11:53:47.235Z,3.15
2023-09-06T11:56:21.168Z,2.97
2023-09-06T11:58:51.996Z,2.92
2023-09-06T12:01:26.113Z,4.35
2023-09-06T12:03:55.642Z,3.33
2023-09-06T12:06:23.806Z,3.13
2023-09-06T12:08:52.766Z,3.28
2023-09-06T12:11:23.346Z,3.13
2023-09-06T12:13:53.363Z,3.20
2023-09-06T12:16:23.570Z,3.10
2023-09-06T12:18:52.218Z,3.42
2023-09-06T12:21:23.011Z,3.70
2023-09-06T12:23:50.959Z,3.15
2023-09-06T12:26:20.371Z,3.10
2023-09-06T12:28:49.354Z,3.28
2023-09-06T12:31:18.100Z,3.15
2023-09-06T12:33:49.536Z,3.08
2023-09-06T12:36:19.096Z,3.05
2023-09-06T12:38:47.353Z,2.90
2023-09-06T12:41:15.538Z,3.28
2023-09-06T12:43:43.849Z,3.20
2023-09-06T12:46:13.795Z,3.17
2023-09-06T12:48:44.597Z,3.20
2023-09-06T12:51:13.117Z,3.20
2023-09-06T12:53:41.195Z,3.25
2023-09-06T12:56:13.613Z,3.17
2023-09-06T12:58:42.615Z,3.75
2023-09-06T13:01:12.403Z,3.33
2023-09-06T13:03:42.114Z,3.15
2023-09-06T13:06:10.339Z,3.65
2023-09-06T13:08:38.279Z,3.35
2023-09-06T13:11:06.268Z,3.42
2023-09-06T13:13:34.194Z,3.60
2023-09-06T13:16:02.100Z,3.40
2023-09-06T13:18:30.597Z,3.10
2023-09-06T13:20:59.552Z,3.50
2023-09-06T13:23:27.700Z,3.50
2023-09-06T13:25:55.882Z,3.60
2023-09-06T13:28:23.974Z,3.45
2023-09-06T13:30:52.392Z,3.15
2023-09-06T13:33:20.696Z,3.90
2023-09-06T13:35:48.884Z,3.45
2023-09-06T13:38:17.557Z,3.33
2023-09-06T13:40:45.739Z,3.58
2023-09-06T13:43:13.967Z,3.40
2023-09-06T13:45:42.147Z,3.92
2023-09-06T13:48:11.595Z,3.35
2023-09-06T13:50:39.815Z,3.25
2023-09-06T13:53:11.941Z,3.75
2023-09-06T13:55:40.058Z,3.45
2023-09-06T13:58:10.308Z,3.80
2023-09-06T14:00:38.495Z,4.00
2023-09-06T14:03:07.081Z,3.40
2023-09-06T14:05:36.454Z,3.35
2023-09-06T14:08:04.881Z,3.60
2023-09-06T14:10:33.014Z,4.00
2023-09-06T14:13:01.742Z,3.63
2023-09-06T14:15:30.083Z,3.50
2023-09-06T14:17:59.436Z,3.80
2023-09-06T14:20:27.906Z,4.05
2023-09-06T14:22:57.227Z,4.25
2023-09-06T14:25:25.535Z,3.67
2023-09-06T14:27:53.641Z,3.40
2023-09-06T14:30:21.681Z,3.60
2023-09-06T14:32:49.943Z,3.67
2023-09-06T14:35:18.285Z,3.50
2023-09-06T14:37:46.354Z,4.03
2023-09-06T14:40:14.506Z,3.90
2023-09-06T14:42:44.009Z,3.80
2023-09-06T14:45:13.604Z,4.38
2023-09-06T14:47:44.787Z,4.35
2023-09-06T14:50:13.058Z,4.60
2023-09-06T14:52:41.337Z,4.57
2023-09-06T14:55:09.925Z,4.35
2023-09-06T14:57:39.629Z,5.05
2023-09-06T15:00:08.460Z,4.65
2023-09-06T15:02:36.820Z,4.43
2023-09-06T15:05:06.115Z,4.93
2023-09-06T15:07:34.260Z,4.50
2023-09-06T15:10:04.431Z,4.50
2023-09-06T15:12:32.724Z,4.88
2023-09-06T15:15:01.001Z,4.82
2023-09-06T15:17:29.183Z,4.43
2023-09-06T15:19:57.495Z,4.85
2023-09-06T15:22:38.482Z,4.72
2023-09-06T15:25:08.008Z,6.00
2023-09-06T15:27:36.184Z,5.10
2023-09-06T15:30:06.963Z,5.18
2023-09-06T15:32:36.616Z,4.50
2023-09-06T15:35:08.550Z,4.60
2023-09-06T15:37:36.803Z,4.32
2023-09-06T15:40:06.920Z,4.30
2023-09-06T15:42:35.276Z,4.65
2023-09-06T15:45:09.738Z,4.70
2023-09-06T15:47:40.656Z,5.65
2023-09-06T15:50:10.322Z,4.60
2023-09-06T15:52:38.425Z,5.07
2023-09-06T15:55:07.570Z,5.15
2023-09-06T15:57:35.668Z,4.70
2023-09-06T16:00:24.526Z,5.28
2023-09-06T16:02:58.345Z,5.28
2023-09-06T16:05:26.955Z,4.40
2023-09-06T16:07:57.126Z,4.88
2023-09-06T16:10:25.408Z,5.53
2023-09-06T16:12:56.677Z,5.38
2023-09-06T16:15:25.188Z,6.30
2023-09-06T16:17:54.717Z,5.72
2023-09-06T16:20:23.580Z,4.93
2023-09-06T16:22:51.884Z,4.88
2023-09-06T16:25:20.559Z,5.15
2023-09-06T16:27:48.759Z,4.65
2023-09-06T16:30:17.117Z,5.15
2023-09-06T16:32:45.648Z,4.13
2023-09-06T16:35:14.088Z,4.65
2023-09-06T16:37:50.028Z,4.15
2023-09-06T16:40:24.861Z,4.40
2023-09-06T16:42:53.455Z,7.50
2023-09-06T16:45:22.179Z,6.78
2023-09-06T16:47:51.796Z,5.50
2023-09-06T16:50:21.238Z,5.55
2023-09-06T16:52:51.556Z,4.95
2023-09-06T16:55:20.264Z,4.93
2023-09-06T16:57:48.436Z,4.55
2023-09-06T17:00:16.865Z,4.50
2023-09-06T17:02:44.970Z,5.10
2023-09-06T17:05:13.148Z,4.80
2023-09-06T17:07:43.171Z,4.43
2023-09-06T17:10:11.355Z,4.63
2023-09-06T17:12:39.965Z,4.95
2023-09-06T17:15:15.070Z,4.05
2023-09-06T17:17:44.450Z,4.90
2023-09-06T17:20:16.869Z,4.20
2023-09-06T17:22:46.116Z,4.30
2023-09-06T17:25:14.494Z,3.92
2023-09-06T17:27:44.970Z,3.53
2023-09-06T17:30:21.620Z,3.70
2023-09-06T17:33:16.350Z,4.43
2023-09-06T17:35:46.253Z,3.67
2023-09-06T17:38:15.893Z,3.80
2023-09-06T17:40:48.694Z,4.10
2023-09-06T17:43:17.794Z,4.00
2023-09-06T17:45:50.002Z,3.90
2023-09-06T17:48:19.853Z,3.65
2023-09-06T17:50:54.376Z,3.47
2023-09-06T17:53:26.852Z,3.47
2023-09-06T17:56:09.361Z,3.40
2023-09-06T17:58:40.406Z,3.60
2023-09-06T18:01:10.203Z,3.63
2023-09-06T18:03:40.004Z,3.72
2023-09-06T18:06:12.055Z,4.03
2023-09-06T18:08:41.161Z,3.55
2023-09-06T18:11:10.050Z,3.80
2023-09-06T18:13:40.851Z,4.15
2023-09-06T18:16:13.168Z,3.70
2023-09-06T18:18:42.038Z,3.22
2023-09-06T18:21:12.716Z,3.97
2023-09-06T18:23:41.376Z,4.20
2023-09-06T18:26:09.523Z,3.50
2023-09-06T18:28:38.511Z,3.92
2023-09-06T18:31:06.628Z,3.97
2023-09-06T18:33:34.546Z,4.10
2023-09-06T18:36:02.555Z,4.07
2023-09-06T18:38:30.902Z,4.35
2023-09-06T18:41:00.102Z,3.60
2023-09-06T18:43:28.637Z,4.80
2023-09-06T18:45:56.732Z,4.22
2023-09-06T18:48:25.485Z,4.10
2023-09-06T18:50:53.630Z,4.55
2023-09-06T18:53:22.840Z,4.40
2023-09-06T18:55:51.299Z,3.90
2023-09-06T18:58:19.257Z,3.88
2023-09-06T19:00:47.940Z,4.30
2023-09-06T19:03:17.095Z,4.10
2023-09-06T19:05:45.325Z,4.30
2023-09-06T19:08:16.478Z,4.00
2023-09-06T19:10:45.297Z,3.90
2023-09-06T19:13:16.065Z,4.05
2023-09-06T19:15:48.954Z,3.72
2023-09-06T19:18:17.773Z,3.95
2023-09-06T19:20:45.991Z,3.65
2023-09-06T19:23:18.551Z,4.18
2023-09-06T19:25:53.817Z,4.35
2023-09-06T19:28:25.733Z,4.25
2023-09-06T19:30:59.011Z,3.70
2023-09-06T19:33:28.391Z,3.80
2023-09-06T19:35:57.239Z,3.72
2023-09-06T19:38:25.147Z,3.33
2023-09-06T19:40:55.694Z,4.28
2023-09-06T19:43:25.285Z,4.05
2023-09-06T19:45:57.550Z,3.67
2023-09-06T19:48:26.661Z,3.80
2023-09-06T19:50:55.041Z,3.80
2023-09-06T19:53:23.647Z,3.92
2023-09-06T19:55:51.823Z,3.83
2023-09-06T19:58:20.789Z,4.10
2023-09-06T20:00:48.704Z,3.58
2023-09-06T20:03:16.983Z,3.40
2023-09-06T20:05:45.139Z,4.43
2023-09-06T20:08:13.268Z,3.53
2023-09-06T20:10:51.344Z,3.58
2023-09-06T20:13:21.802Z,3.70
2023-09-06T20:15:50.659Z,3.67
2023-09-06T20:18:18.645Z,3.70
2023-09-06T22:00:36.540Z,3.80
2023-09-06T22:03:25.061Z,3.70
2023-09-06T22:06:12.522Z,4.07
2023-09-06T22:09:01.285Z,4.15
2023-09-06T22:11:48.780Z,4.10
2023-09-06T22:14:20.111Z,4.18
2023-09-06T22:16:50.280Z,3.65
2023-09-06T22:19:19.192Z,3.67
2023-09-06T22:21:48.415Z,3.65
2023-09-06T22:24:17.556Z,3.58
2023-09-06T22:26:46.688Z,4.35
2023-09-06T22:29:17.174Z,3.75
2023-09-06T22:31:47.399Z,3.53
2023-09-06T22:34:17.690Z,3.60
2023-09-06T22:36:47.359Z,3.65
2023-09-06T22:39:16.580Z,3.55
2023-09-06T22:41:45.677Z,3.22
2023-09-06T22:44:14.861Z,3.38
2023-09-06T22:46:44.057Z,3.40
2023-09-06T22:49:13.241Z,3.25
2023-09-06T22:51:45.452Z,3.42
2023-09-06T22:54:14.572Z,3.40
2023-09-06T22:56:46.603Z,3.70
2023-09-06T22:59:15.772Z,3.85
2023-09-06T23:01:45.873Z,3.47
2023-09-06T23:04:15.550Z,3.78
2023-09-06T23:06:44.820Z,3.35
2023-09-06T23:09:14.883Z,3.60
2023-09-06T23:11:49.622Z,3.47
2023-09-06T23:14:21.443Z,3.70
2023-09-06T23:16:52.358Z,3.63
2023-09-06T23:19:26.658Z,3.47
2023-09-06T23:22:01.237Z,3.20
2023-09-06T23:24:31.644Z,3.30
2023-09-06T23:27:02.424Z,3.65
2023-09-06T23:29:37.702Z,3.22
2023-09-06T23:32:09.180Z,3.58
2023-09-06T23:34:41.365Z,3.75
2023-09-06T23:37:10.932Z,3.25
2023-09-06T23:39:43.738Z,3.30
2023-09-06T23:42:15.594Z,3.60
2023-09-06T23:44:45.309Z,3.90
2023-09-06T23:47:18.822Z,3.63
2023-09-06T23:49:47.782Z,3.20
2023-09-06T23:52:18.108Z,3.13
2023-09-06T23:54:48.724Z,3.50
2023-09-06T23:57:19.848Z,3.20
2023-09-06T23:59:49.222Z,3.58
